createdAt,value
2022-09-01T00:01:55.972Z,71.15
2022-09-01T00:04:03.166Z,71.36
2022-09-01T00:06:09.473Z,71.56
2022-09-01T00:08:12.125Z,71.48
2022-09-01T00:10:20.736Z,71.17
2022-09-01T00:12:25.688Z,71.16
2022-09-01T00:14:31.301Z,70.82
2022-09-01T00:16:34.477Z,70.98
2022-09-01T00:18:37.293Z,70.97
2022-09-01T00:20:41.238Z,70.79
2022-09-01T00:22:43.826Z,71.15
2022-09-01T00:24:46.774Z,71.79
2022-09-01T00:26:50.298Z,71.46
2022-09-01T00:28:53.057Z,72.13
2022-09-01T00:30:55.728Z,71.94
2022-09-01T00:32:58.419Z,72.02
2022-09-01T00:35:01.017Z,71.77
2022-09-01T00:37:05.189Z,71.42
2022-09-01T00:39:08.339Z,71.91
2022-09-01T00:41:14.333Z,72.13
2022-09-01T00:43:22.366Z,71.21
2022-09-01T00:45:25.116Z,71.47
2022-09-01T00:47:27.688Z,71.78
2022-09-01T00:49:35.061Z,72.16
2022-09-01T00:51:40.081Z,72.64
2022-09-01T00:53:45.690Z,72.35
2022-09-01T00:55:48.378Z,72.05
2022-09-01T00:57:51.276Z,71.91
2022-09-01T00:59:58.463Z,71.80
2022-09-01T01:02:01.134Z,71.55
2022-09-01T01:04:05.212Z,71.85
2022-09-01T01:06:09.413Z,71.83
2022-09-01T01:08:12.065Z,71.84
2022-09-01T01:10:18.267Z,71.71
2022-09-01T01:12:21.676Z,71.52
2022-09-01T01:14:24.284Z,72.22
2022-09-01T01:16:29.453Z,72.14
2022-09-01T01:18:32.357Z,72.22
2022-09-01T01:20:53.249Z,72.74
2022-09-01T01:23:10.739Z,72.71
2022-09-01T01:25:14.968Z,72.71
2022-09-01T01:27:21.855Z,72.27
2022-09-01T01:29:24.979Z,71.96
2022-09-01T01:31:27.547Z,71.63
2022-09-01T01:33:33.770Z,71.65
2022-09-01T01:35:37.499Z,71.48
2022-09-01T01:37:40.125Z,71.70
2022-09-01T01:39:44.733Z,71.44
2022-09-01T01:41:50.768Z,71.85
2022-09-01T01:43:53.373Z,71.63
2022-09-01T01:46:02.392Z,71.60
2022-09-01T01:48:08.495Z,71.91
2022-09-01T01:50:11.461Z,72.08
2022-09-01T01:52:17.605Z,72.34
2022-09-01T01:54:20.185Z,72.40
2022-09-01T01:56:25.616Z,72.76
2022-09-01T01:58:30.341Z,72.61
2022-09-01T02:00:34.586Z,72.18
2022-09-01T02:02:38.639Z,72.00
2022-09-01T02:04:42.382Z,72.13
2022-09-01T02:06:46.228Z,72.20
2022-09-01T02:08:48.804Z,71.93
2022-09-01T02:10:54.657Z,71.78
2022-09-01T02:12:58.054Z,71.95
2022-09-01T02:15:04.652Z,71.69
2022-09-01T02:17:08.143Z,71.93
2022-09-01T02:19:12.252Z,71.83
2022-09-01T02:21:19.624Z,72.21
2022-09-01T02:23:24.491Z,72.66
2022-09-01T02:25:27.473Z,72.88
2022-09-01T02:27:30.054Z,73.23
2022-09-01T02:29:33.249Z,74.11
2022-09-01T02:31:44.632Z,73.97
2022-09-01T02:33:47.507Z,73.80
2022-09-01T02:35:54.131Z,73.25
2022-09-01T02:38:00.996Z,73.56
2022-09-01T02:40:04.179Z,73.18
2022-09-01T02:42:08.490Z,73.92
2022-09-01T02:44:12.666Z,73.54
2022-09-01T02:46:16.553Z,73.24
2022-09-01T02:48:24.473Z,73.11
2022-09-01T02:50:27.349Z,73.75
2022-09-01T02:52:37.519Z,72.76
2022-09-01T02:54:40.134Z,72.44
2022-09-01T02:56:42.706Z,72.35
2022-09-01T02:58:46.937Z,71.57
2022-09-01T03:00:54.162Z,71.82
2022-09-01T03:02:58.873Z,71.50
2022-09-01T03:05:02.909Z,72.63
2022-09-01T03:07:08.841Z,72.43
2022-09-01T03:09:14.740Z,72.80
2022-09-01T03:11:18.508Z,72.55
2022-09-01T03:13:23.716Z,72.31
2022-09-01T03:15:27.456Z,72.54
2022-09-01T03:17:30.024Z,72.32
2022-09-01T03:19:41.888Z,72.17
2022-09-01T03:21:46.493Z,72.48
2022-09-01T03:23:52.080Z,72.37
2022-09-01T03:25:54.942Z,72.08
2022-09-01T03:28:03.029Z,72.45
2022-09-01T03:30:06.754Z,72.13
2022-09-01T03:32:09.431Z,72.68
2022-09-01T03:34:12.552Z,72.96
2022-09-01T03:36:19.327Z,72.72
2022-09-01T03:38:24.539Z,72.72
2022-09-01T03:40:30.022Z,73.10
2022-09-01T03:42:32.709Z,73.27
2022-09-01T03:44:40.206Z,73.56
2022-09-01T03:46:43.603Z,73.47
2022-09-01T03:48:47.815Z,73.50
2022-09-01T03:50:50.861Z,73.62
2022-09-01T03:52:56.658Z,73.62
2022-09-01T03:55:00.633Z,73.81
2022-09-01T03:57:05.981Z,73.42
2022-09-01T03:59:08.742Z,74.02
2022-09-01T04:01:13.582Z,74.15
2022-09-01T04:03:28.448Z,74.29
2022-09-01T04:05:33.949Z,73.99
2022-09-01T04:07:36.520Z,74.22
2022-09-01T04:09:39.851Z,74.75
2022-09-01T04:11:46.284Z,74.83
2022-09-01T04:13:48.993Z,74.89
2022-09-01T04:15:51.591Z,74.90
2022-09-01T04:18:09.665Z,74.63
2022-09-01T04:20:12.960Z,74.40
2022-09-01T04:22:17.598Z,74.41
2022-09-01T04:24:21.032Z,74.59
2022-09-01T04:26:26.785Z,74.55
2022-09-01T04:28:37.390Z,74.52
2022-09-01T04:30:40.724Z,74.28
2022-09-01T04:32:46.875Z,74.32
2022-09-01T04:34:49.729Z,74.19
2022-09-01T04:36:56.762Z,73.26
2022-09-01T04:39:08.756Z,73.80
2022-09-01T04:41:17.712Z,74.05
2022-09-01T04:43:20.459Z,74.42
2022-09-01T04:45:25.249Z,74.27
2022-09-01T04:47:35.263Z,74.50
2022-09-01T04:49:38.578Z,74.39
2022-09-01T04:51:42.003Z,74.55
2022-09-01T04:53:48.695Z,74.40
2022-09-01T04:55:52.465Z,74.38
2022-09-01T04:57:55.807Z,74.36
2022-09-01T04:59:58.507Z,74.28
2022-09-01T05:02:02.496Z,74.40
2022-09-01T05:04:05.249Z,74.22
2022-09-01T05:06:14.665Z,74.41
2022-09-01T05:08:23.935Z,74.34
2022-09-01T05:10:29.954Z,74.96
2022-09-01T05:12:32.740Z,75.44
2022-09-01T05:14:35.335Z,75.56
2022-09-01T05:16:38.924Z,75.49
2022-09-01T05:18:47.745Z,75.28
2022-09-01T05:20:53.031Z,75.48
2022-09-01T05:22:57.471Z,75.03
2022-09-01T05:25:13.134Z,75.10
2022-09-01T05:27:16.003Z,75.05
2022-09-01T05:29:19.008Z,75.42
2022-09-01T05:31:22.027Z,75.73
2022-09-01T05:33:24.617Z,75.47
2022-09-01T05:35:32.864Z,75.40
2022-09-01T05:37:38.004Z,75.31
2022-09-01T05:39:40.591Z,75.66
2022-09-01T05:41:43.794Z,75.34
2022-09-01T05:43:55.084Z,75.74
2022-09-01T05:46:11.280Z,75.85
2022-09-01T05:48:21.816Z,76.25
2022-09-01T05:50:24.489Z,75.53
2022-09-01T05:52:31.624Z,76.89
2022-09-01T05:54:34.861Z,77.29
2022-09-01T05:56:43.511Z,77.06
2022-09-01T06:01:13.341Z,77.00
2022-09-01T06:03:17.726Z,77.16
2022-09-01T06:05:20.892Z,76.95
2022-09-01T06:07:26.668Z,76.92
2022-09-01T06:09:30.671Z,77.56
2022-09-01T06:11:33.312Z,77.53
2022-09-01T06:13:35.884Z,77.58
2022-09-01T06:15:39.486Z,77.30
2022-09-01T06:17:43.825Z,77.15
2022-09-01T06:19:46.737Z,77.17
2022-09-01T06:21:49.373Z,77.14
2022-09-01T06:23:54.001Z,77.08
2022-09-01T06:26:01.704Z,76.78
2022-09-01T06:28:04.928Z,77.08
2022-09-01T06:30:15.057Z,77.09
2022-09-01T06:32:19.308Z,76.46
2022-09-01T06:34:22.349Z,76.72
2022-09-01T06:36:26.026Z,77.05
2022-09-01T06:38:29.396Z,76.78
2022-09-01T06:40:32.398Z,76.18
2022-09-01T06:42:37.794Z,77.08
2022-09-01T06:44:41.182Z,77.16
2022-09-01T06:46:43.858Z,76.88
2022-09-01T06:48:47.343Z,75.38
2022-09-01T06:53:34.323Z,76.85
2022-09-01T06:55:39.099Z,76.71
2022-09-01T07:00:18.812Z,76.58
2022-09-01T07:02:26.913Z,76.50
2022-09-01T07:04:31.399Z,76.62
2022-09-01T07:16:33.869Z,76.53
2022-09-01T07:18:38.182Z,76.85
2022-09-01T07:23:07.080Z,77.00
2022-09-01T07:25:12.875Z,76.62
2022-09-01T07:27:15.911Z,76.79
2022-09-01T07:29:25.700Z,77.03
2022-09-01T07:34:38.526Z,76.95
2022-09-01T07:36:26.820Z,76.84
2022-09-01T07:42:59.234Z,76.09
2022-09-01T07:43:22.265Z,77.11
2022-09-01T07:45:26.924Z,77.06
2022-09-01T07:50:24.283Z,76.99
2022-09-01T07:52:17.444Z,77.07
2022-09-01T07:54:25.499Z,77.55
2022-09-01T07:56:30.171Z,77.52
2022-09-01T07:58:33.599Z,78.03
2022-09-01T08:00:38.087Z,77.99
2022-09-01T08:02:40.824Z,78.19
2022-09-01T08:04:43.430Z,77.75
2022-09-01T08:06:46.012Z,77.59
2022-09-01T08:08:50.775Z,77.45
2022-09-01T08:10:53.402Z,77.88
2022-09-01T08:12:56.860Z,77.70
2022-09-01T08:15:40.490Z,77.59
2022-09-01T08:19:47.007Z,77.43
2022-09-01T08:21:49.659Z,77.76
2022-09-01T08:23:54.109Z,77.79
2022-09-01T08:25:56.722Z,78.19
2022-09-01T08:28:00.648Z,78.53
2022-09-01T08:30:04.651Z,77.89
2022-09-01T08:32:08.422Z,77.89
2022-09-01T08:34:12.635Z,77.29
2022-09-01T08:36:21.549Z,78.07
2022-09-01T08:38:26.437Z,76.84
2022-09-01T08:40:30.361Z,76.19
2022-09-01T08:42:45.760Z,75.13
2022-09-01T08:45:00.216Z,75.74
2022-09-01T08:47:07.024Z,76.25
2022-09-01T08:49:25.311Z,75.60
2022-09-01T08:51:36.152Z,74.95
2022-09-01T08:53:45.540Z,74.90
2022-09-01T08:55:51.808Z,73.76
2022-09-01T08:57:59.744Z,72.50
2022-09-01T09:00:02.702Z,72.76
2022-09-01T09:02:17.660Z,72.59
2022-09-01T09:04:38.261Z,72.94
2022-09-01T09:06:55.415Z,73.38
2022-09-01T09:08:59.694Z,73.21
2022-09-01T09:11:05.288Z,72.57
2022-09-01T09:13:13.384Z,72.08
2022-09-01T09:15:23.465Z,71.23
2022-09-01T09:17:31.006Z,69.67
2022-09-01T09:19:37.892Z,70.25
2022-09-01T09:21:42.769Z,69.27
2022-09-01T09:23:49.648Z,70.11
2022-09-01T09:25:52.312Z,69.40
2022-09-01T09:28:02.002Z,69.76
2022-09-01T09:30:11.187Z,70.14
2022-09-01T09:32:50.426Z,69.65
2022-09-01T09:34:40.292Z,66.10
2022-09-01T09:36:48.039Z,66.48
2022-09-01T09:39:11.994Z,66.42
2022-09-01T09:41:26.539Z,65.54
2022-09-01T09:43:32.863Z,65.11
2022-09-01T09:45:41.658Z,65.34
2022-09-01T09:47:46.645Z,64.76
2022-09-01T09:50:12.461Z,64.36
2022-09-01T09:52:19.039Z,64.05
2022-09-01T09:54:26.701Z,63.58
2022-09-01T09:56:29.327Z,63.81
2022-09-01T09:58:39.044Z,64.54
2022-09-01T10:00:44.721Z,63.82
2022-09-01T10:02:54.323Z,63.00
2022-09-01T10:04:59.313Z,61.29
2022-09-01T10:07:01.985Z,62.99
2022-09-01T10:09:07.026Z,62.67
2022-09-01T10:11:10.383Z,61.82
2022-09-01T10:13:15.658Z,62.00
2022-09-01T10:15:21.271Z,61.55
2022-09-01T10:17:30.442Z,61.31
2022-09-01T10:19:35.889Z,59.70
2022-09-01T10:21:42.096Z,58.96
2022-09-01T10:23:45.110Z,58.77
2022-09-01T10:25:51.105Z,58.43
2022-09-01T10:27:59.258Z,58.64
2022-09-01T10:30:20.141Z,58.54
2022-09-01T10:32:36.956Z,58.49
2022-09-01T10:34:42.685Z,56.64
2022-09-01T10:36:55.892Z,57.89
2022-09-01T10:39:05.008Z,57.15
2022-09-01T10:41:14.000Z,58.02
2022-09-01T10:43:45.078Z,57.93
2022-09-01T10:45:53.335Z,57.32
2022-09-01T10:48:33.296Z,57.72
2022-09-01T10:50:36.517Z,57.75
2022-09-01T10:53:01.764Z,57.46
2022-09-01T10:55:07.407Z,57.20
2022-09-01T10:57:12.666Z,57.30
2022-09-01T10:59:40.330Z,56.49
2022-09-01T11:02:35.291Z,57.49
2022-09-01T11:05:24.706Z,57.71
2022-09-01T11:07:56.587Z,58.02
2022-09-01T11:10:34.729Z,58.39
2022-09-01T11:12:48.790Z,58.44
2022-09-01T11:14:54.833Z,58.67
2022-09-01T11:17:15.540Z,58.24
2022-09-01T11:19:44.505Z,57.71
2022-09-01T11:21:48.379Z,56.65
2022-09-01T11:23:52.749Z,56.95
2022-09-01T11:28:38.542Z,56.45
2022-09-01T11:30:52.015Z,56.48
2022-09-01T11:33:03.373Z,56.42
2022-09-01T11:35:16.583Z,56.39
2022-09-01T11:37:23.302Z,56.41
2022-09-01T11:39:33.466Z,56.63
2022-09-01T11:41:55.861Z,56.38
2022-09-01T11:44:01.848Z,54.93
2022-09-01T11:46:14.984Z,55.00
2022-09-01T11:48:18.427Z,53.89
2022-09-01T11:50:24.968Z,55.02
2022-09-01T11:52:32.121Z,55.19
2022-09-01T11:54:41.268Z,54.93
2022-09-01T11:56:45.263Z,54.42
2022-09-01T11:58:47.904Z,54.36
2022-09-01T12:00:50.504Z,54.43
2022-09-01T12:02:57.144Z,54.32
2022-09-01T12:05:02.019Z,54.09
2022-09-01T12:07:10.807Z,54.73
2022-09-01T12:09:13.780Z,54.68
2022-09-01T12:11:22.424Z,54.57
2022-09-01T12:13:26.374Z,54.43
2022-09-01T12:15:30.655Z,54.16
2022-09-01T12:17:33.288Z,54.24
2022-09-01T12:19:38.544Z,54.58
2022-09-01T12:21:44.716Z,54.79
2022-09-01T12:23:47.632Z,54.87
2022-09-01T12:25:50.476Z,53.59
2022-09-01T12:27:53.570Z,53.06
2022-09-01T12:29:58.765Z,53.84
2022-09-01T12:32:02.270Z,53.32
2022-09-01T12:34:04.993Z,52.80
2022-09-01T12:36:23.765Z,51.64
2022-09-01T12:38:30.627Z,51.16
2022-09-01T12:40:36.359Z,51.59
2022-09-01T12:42:41.556Z,51.36
2022-09-01T12:44:51.350Z,50.59
2022-09-01T12:46:55.596Z,49.83
2022-09-01T12:49:17.702Z,48.72
2022-09-01T12:51:26.504Z,48.76
2022-09-01T12:53:36.508Z,47.28
2022-09-01T12:55:54.838Z,44.54
2022-09-01T12:57:59.961Z,44.60
2022-09-01T13:00:18.026Z,45.61
2022-09-01T13:02:36.243Z,46.22
2022-09-01T13:04:38.932Z,47.05
2022-09-01T13:06:41.854Z,47.24
2022-09-01T13:08:44.627Z,48.80
2022-09-01T13:10:49.317Z,48.97
2022-09-01T13:12:52.669Z,48.90
2022-09-01T13:14:55.240Z,49.50
2022-09-01T13:16:58.262Z,49.89
2022-09-01T13:19:26.562Z,49.86
2022-09-01T13:21:25.210Z,49.79
2022-09-01T13:23:27.920Z,49.68
2022-09-01T13:25:30.520Z,49.78
2022-09-01T13:27:33.116Z,48.09
2022-09-01T13:29:35.706Z,46.75
2022-09-01T13:32:16.072Z,44.58
2022-09-01T13:34:10.692Z,42.89
2022-09-01T13:38:45.977Z,40.47
2022-09-01T13:40:53.533Z,40.01
2022-09-01T13:42:56.185Z,39.68
2022-09-01T13:44:58.758Z,38.63
2022-09-01T13:47:28.665Z,38.46
2022-09-01T13:51:51.991Z,39.22
2022-09-01T13:53:55.104Z,39.73
2022-09-01T13:58:05.576Z,40.42
2022-09-01T14:00:11.695Z,41.02
2022-09-01T14:02:17.011Z,41.06
2022-09-01T14:04:22.902Z,42.26
2022-09-01T14:06:26.849Z,43.04
2022-09-01T14:08:30.724Z,43.60
2022-09-01T14:10:33.937Z,43.32
2022-09-01T14:12:36.646Z,41.94
2022-09-01T14:17:04.534Z,40.98
2022-09-01T14:19:07.192Z,40.57
2022-09-01T14:21:13.415Z,41.12
2022-09-01T14:23:18.112Z,40.95
2022-09-01T14:25:21.496Z,41.36
2022-09-01T14:27:24.108Z,41.22
2022-09-01T14:29:27.603Z,41.32
2022-09-01T14:31:30.499Z,40.96
2022-09-01T14:33:34.097Z,41.57
2022-09-01T14:35:38.947Z,41.92
2022-09-01T14:37:42.170Z,42.33
2022-09-01T14:39:50.384Z,42.34
2022-09-01T14:41:53.004Z,42.90
2022-09-01T14:44:02.338Z,42.65
2022-09-01T14:46:08.308Z,43.31
2022-09-01T14:48:11.247Z,42.94
2022-09-01T14:50:15.999Z,43.75
2022-09-01T14:52:22.101Z,43.65
2022-09-01T14:54:24.803Z,44.32
2022-09-01T14:56:30.057Z,44.81
2022-09-01T14:58:33.206Z,45.11
2022-09-01T15:00:37.008Z,45.66
2022-09-01T15:02:40.960Z,45.50
2022-09-01T15:04:43.634Z,45.47
2022-09-01T15:06:46.275Z,45.52
2022-09-01T15:08:49.498Z,45.46
2022-09-01T15:10:52.023Z,45.38
2022-09-01T15:12:58.671Z,44.65
2022-09-01T15:15:02.485Z,44.81
2022-09-01T15:17:06.999Z,44.33
2022-09-01T15:19:12.673Z,44.94
2022-09-01T15:21:20.399Z,44.95
2022-09-01T15:23:25.539Z,44.84
2022-09-01T15:25:28.148Z,44.81
2022-09-01T15:27:30.705Z,45.08
2022-09-01T15:29:36.836Z,44.84
2022-09-01T15:31:39.900Z,45.00
2022-09-01T15:33:43.154Z,44.97
2022-09-01T15:35:46.596Z,45.22
2022-09-01T15:37:50.090Z,45.76
2022-09-01T15:39:52.630Z,45.76
2022-09-01T15:41:55.230Z,46.31
2022-09-01T15:43:58.941Z,46.51
2022-09-01T15:46:05.425Z,46.47
2022-09-01T15:48:08.245Z,46.32
2022-09-01T15:50:16.843Z,46.02
2022-09-01T15:52:24.758Z,46.33
2022-09-01T15:54:30.501Z,45.38
2022-09-01T15:56:33.475Z,44.52
2022-09-01T15:58:57.527Z,43.69
2022-09-01T16:01:00.098Z,43.48
2022-09-01T16:03:04.415Z,42.41
2022-09-01T16:05:08.276Z,42.78
2022-09-01T16:07:10.921Z,43.13
2022-09-01T16:09:14.610Z,42.41
2022-09-01T16:11:17.391Z,41.93
2022-09-01T16:13:20.604Z,42.25
2022-09-01T16:15:25.463Z,42.32
2022-09-01T16:17:43.680Z,42.63
2022-09-01T16:19:55.956Z,43.32
2022-09-01T16:22:06.940Z,43.42
2022-09-01T16:24:13.067Z,44.61
2022-09-01T16:26:17.984Z,43.34
2022-09-01T16:28:27.619Z,43.95
2022-09-01T16:30:30.904Z,44.48
2022-09-01T16:32:33.703Z,44.58
2022-09-01T16:34:47.156Z,45.18
2022-09-01T16:36:57.502Z,43.58
2022-09-01T16:39:05.145Z,43.88
2022-09-01T16:41:13.808Z,44.24
2022-09-01T16:43:25.656Z,44.46
2022-09-01T16:45:43.159Z,45.10
2022-09-01T16:47:56.418Z,45.58
2022-09-01T16:50:06.854Z,45.20
2022-09-01T16:52:19.053Z,45.74
2022-09-01T16:54:30.804Z,46.01
2022-09-01T16:56:36.580Z,46.74
2022-09-01T16:58:47.174Z,47.17
2022-09-01T17:00:59.041Z,47.59
2022-09-01T17:03:10.042Z,47.45
2022-09-01T17:05:25.318Z,47.36
2022-09-01T17:07:38.276Z,48.61
2022-09-01T17:09:43.888Z,47.77
2022-09-01T17:11:52.771Z,47.39
2022-09-01T17:13:58.102Z,47.87
2022-09-01T17:16:07.883Z,48.17
2022-09-01T17:18:22.978Z,47.94
2022-09-01T17:20:30.097Z,48.06
2022-09-01T17:22:37.329Z,48.82
2022-09-01T17:24:42.722Z,49.13
2022-09-01T17:26:50.726Z,49.51
2022-09-01T17:28:58.600Z,48.06
2022-09-01T17:31:14.256Z,49.55
2022-09-01T17:33:24.542Z,49.62
2022-09-01T17:35:37.685Z,50.20
2022-09-01T17:37:56.355Z,49.75
2022-09-01T17:40:10.770Z,50.07
2022-09-01T17:42:24.932Z,50.81
2022-09-01T17:44:37.185Z,50.98
2022-09-01T17:46:44.509Z,50.94
2022-09-01T17:48:52.955Z,51.68
2022-09-01T17:51:03.516Z,51.85
2022-09-01T17:53:22.227Z,52.19
2022-09-01T17:55:40.381Z,52.98
2022-09-01T17:57:47.725Z,52.81
2022-09-01T17:59:57.563Z,53.13
2022-09-01T18:02:20.154Z,53.38
2022-09-01T18:04:40.103Z,53.73
2022-09-01T18:06:50.117Z,54.23
2022-09-01T18:08:58.129Z,54.57
2022-09-01T18:11:03.196Z,54.52
2022-09-01T18:13:08.093Z,55.04
2022-09-01T18:15:14.333Z,55.20
2022-09-01T18:17:23.534Z,55.44
2022-09-01T18:19:36.860Z,54.79
2022-09-01T18:21:49.299Z,55.26
2022-09-01T18:23:56.697Z,55.35
2022-09-01T18:26:07.336Z,55.28
2022-09-01T18:28:11.801Z,55.85
2022-09-01T18:30:22.361Z,56.59
2022-09-01T18:32:42.284Z,56.17
2022-09-01T18:35:02.876Z,56.17
2022-09-01T18:37:15.210Z,56.56
2022-09-01T18:39:28.111Z,56.61
2022-09-01T18:41:44.301Z,56.67
2022-09-01T18:43:55.487Z,56.95
2022-09-01T18:46:05.201Z,56.28
2022-09-01T18:48:19.872Z,56.49
2022-09-01T18:50:27.850Z,55.70
2022-09-01T18:52:50.355Z,55.88
2022-09-01T18:55:03.756Z,56.11
2022-09-01T18:57:07.882Z,56.51
2022-09-01T18:59:26.577Z,57.07
2022-09-01T19:01:50.236Z,56.84
2022-09-01T19:03:58.616Z,56.87
2022-09-01T19:06:20.807Z,56.61
2022-09-01T19:08:37.513Z,57.15
2022-09-01T19:10:45.861Z,56.89
2022-09-01T19:12:56.428Z,57.07
2022-09-01T19:15:11.571Z,57.57
2022-09-01T19:17:42.326Z,57.92
2022-09-01T19:19:49.758Z,57.84
2022-09-01T19:21:55.833Z,58.19
2022-09-01T19:24:03.152Z,58.39
2022-09-01T19:26:11.956Z,58.62
2022-09-01T19:28:20.540Z,58.54
2022-09-01T19:30:23.273Z,58.56
2022-09-01T19:32:29.698Z,58.54
2022-09-01T19:34:37.332Z,58.80
2022-09-01T19:36:42.946Z,58.90
2022-09-01T19:38:45.593Z,58.93
2022-09-01T19:40:51.658Z,58.79
2022-09-01T19:43:03.125Z,59.24
2022-09-01T19:45:12.345Z,59.22
2022-09-01T19:47:21.713Z,59.25
2022-09-01T19:49:38.273Z,59.42
2022-09-01T19:51:46.856Z,59.52
2022-09-01T19:53:55.122Z,59.69
2022-09-01T19:56:03.357Z,59.70
2022-09-01T19:58:11.063Z,60.20
2022-09-01T20:00:16.377Z,60.30
2022-09-01T20:02:27.890Z,60.66
2022-09-01T20:04:40.300Z,60.77
2022-09-01T20:06:47.536Z,60.73
2022-09-01T20:08:57.385Z,60.38
2022-09-01T20:11:05.198Z,60.35
2022-09-01T20:13:27.122Z,60.08
2022-09-01T20:15:32.655Z,60.42
2022-09-01T20:17:41.820Z,60.37
2022-09-01T20:19:50.599Z,60.78
2022-09-01T20:21:53.662Z,61.27
2022-09-01T20:24:01.134Z,61.25
2022-09-01T20:26:07.325Z,60.94
2022-09-01T20:28:20.771Z,61.49
2022-09-01T20:30:25.498Z,61.60
2022-09-01T20:32:33.734Z,61.54
2022-09-01T20:34:44.570Z,61.75
2022-09-01T20:36:51.603Z,61.72
2022-09-01T20:39:19.506Z,61.96
2022-09-01T20:41:28.815Z,61.73
2022-09-01T20:43:38.930Z,61.89
2022-09-01T20:45:42.632Z,61.92
2022-09-01T20:47:50.362Z,61.87
2022-09-01T20:49:53.084Z,61.68
2022-09-01T20:52:01.252Z,61.97
2022-09-01T20:54:16.035Z,62.06
2022-09-01T20:56:23.231Z,62.46
2022-09-01T20:58:36.819Z,62.48
2022-09-01T21:00:49.666Z,61.70
2022-09-01T21:03:01.438Z,62.50
2022-09-01T21:05:11.050Z,62.48
2022-09-01T21:07:16.502Z,62.53
2022-09-01T21:09:31.463Z,62.74
2022-09-01T21:11:43.095Z,61.91
2022-09-01T21:13:57.446Z,61.97
2022-09-01T21:16:07.560Z,62.87
2022-09-01T21:18:27.175Z,63.05
2022-09-01T21:20:39.549Z,62.86
2022-09-01T21:22:42.125Z,62.98
2022-09-01T21:24:44.731Z,63.03
2022-09-01T21:26:48.926Z,62.87
2022-09-01T21:28:56.720Z,63.12
2022-09-01T21:31:00.601Z,63.32
2022-09-01T21:33:04.460Z,63.45
2022-09-01T21:35:09.821Z,62.82
2022-09-01T21:37:12.813Z,63.45
2022-09-01T21:39:15.466Z,63.52
2022-09-01T21:41:18.145Z,63.40
2022-09-01T21:43:23.775Z,63.42
2022-09-01T21:45:28.181Z,63.90
2022-09-01T21:47:33.776Z,63.44
2022-09-01T21:49:36.840Z,63.40
2022-09-01T21:51:39.473Z,63.46
2022-09-01T21:53:43.338Z,63.94
2022-09-01T21:55:46.250Z,63.91
2022-09-01T21:57:51.907Z,64.26
2022-09-01T21:59:54.488Z,63.97
2022-09-01T22:01:58.439Z,64.06
2022-09-01T22:04:01.397Z,64.10
2022-09-01T22:06:04.100Z,64.12
2022-09-01T22:08:06.940Z,63.88
2022-09-01T22:10:12.750Z,63.42
2022-09-01T22:12:15.847Z,63.43
2022-09-01T22:14:19.135Z,63.33
2022-09-01T22:16:22.403Z,63.46
2022-09-01T22:18:26.439Z,63.64
2022-09-01T22:20:31.901Z,63.44
2022-09-01T22:22:35.525Z,63.59
2022-09-01T22:24:38.096Z,63.76
2022-09-01T22:26:40.646Z,63.99
2022-09-01T22:28:43.338Z,63.71
2022-09-01T22:30:47.206Z,64.33
2022-09-01T22:32:49.826Z,63.84
2022-09-01T22:34:53.836Z,63.14
2022-09-01T22:36:56.402Z,63.74
2022-09-01T22:38:59.860Z,63.66
2022-09-01T22:41:02.483Z,63.53
2022-09-01T22:43:05.632Z,63.10
2022-09-01T22:45:10.247Z,62.81
2022-09-01T22:47:12.885Z,62.70
2022-09-01T22:49:15.576Z,62.85
2022-09-01T22:51:19.880Z,62.87
2022-09-01T22:53:23.463Z,62.17
2022-09-01T22:55:28.081Z,62.65
2022-09-01T22:57:30.894Z,62.48
2022-09-01T22:59:33.617Z,60.57
2022-09-01T23:01:38.827Z,60.61
2022-09-01T23:03:42.446Z,61.35
2022-09-01T23:05:46.307Z,61.89
2022-09-01T23:07:50.393Z,61.31
2022-09-01T23:09:53.015Z,61.29
2022-09-01T23:11:56.420Z,61.25
2022-09-01T23:13:59.748Z,60.64
2022-09-01T23:16:04.197Z,59.29
2022-09-01T23:18:06.870Z,60.11
2022-09-01T23:20:13.095Z,60.11
2022-09-01T23:22:15.688Z,59.77
2022-09-01T23:24:20.048Z,59.85
2022-09-01T23:26:23.071Z,60.59
2022-09-01T23:28:25.678Z,60.37
2022-09-01T23:30:28.300Z,60.29
2022-09-01T23:32:33.372Z,60.50
2022-09-01T23:34:35.999Z,60.23
2022-09-01T23:36:38.756Z,59.96
2022-09-01T23:38:42.035Z,59.97
2022-09-01T23:40:48.465Z,60.25
2022-09-01T23:42:51.070Z,58.97
2022-09-01T23:44:53.837Z,59.65
2022-09-01T23:46:56.455Z,59.87
2022-09-01T23:48:59.733Z,59.91
2022-09-01T23:51:09.248Z,60.65
2022-09-01T23:53:12.425Z,61.09
2022-09-01T23:55:15.049Z,61.31
2022-09-01T23:57:19.068Z,61.49
2022-09-01T23:59:27.536Z,61.67
